createdAt,value
2023-03-04T00:01:05.150Z,98911.14
2023-03-04T00:06:09.540Z,98903.51
2023-03-04T00:11:11.855Z,98898.29
2023-03-04T00:16:13.760Z,98892.61
2023-03-04T00:21:15.493Z,98881.11
2023-03-04T00:26:17.720Z,98877.41
2023-03-04T00:31:20.613Z,98875.26
2023-03-04T00:36:22.243Z,98864.47
2023-03-04T00:41:24.716Z,98862.13
2023-03-04T00:46:27.251Z,98860.19
2023-03-04T00:51:30.626Z,98854.73
2023-03-04T00:56:32.460Z,98844.97
2023-03-04T01:01:34.541Z,98838.06
2023-03-04T01:06:36.573Z,98824.20
2023-03-04T01:11:38.514Z,98816.11
2023-03-04T01:16:40.298Z,98809.30
2023-03-04T01:21:42.039Z,98802.09
2023-03-04T01:26:43.625Z,98790.98
2023-03-04T01:31:45.303Z,98779.58
2023-03-04T01:36:47.813Z,98775.93
2023-03-04T01:41:49.689Z,98769.65
2023-03-04T01:46:54.937Z,98758.52
2023-03-04T01:51:56.792Z,98743.38
2023-03-04T01:57:00.373Z,98737.58
2023-03-04T02:02:02.380Z,98735.37
2023-03-04T02:07:05.990Z,98724.04
2023-03-04T02:12:07.700Z,98723.48
2023-03-04T02:17:13.088Z,98728.61
2023-03-04T02:22:15.190Z,98726.17
2023-03-04T02:27:16.896Z,98724.06
2023-03-04T02:32:18.917Z,98715.16
2023-03-04T02:37:21.797Z,98712.65
2023-03-04T02:42:24.626Z,98697.02
2023-03-04T02:47:26.662Z,98691.87
2023-03-04T02:52:30.036Z,98691.73
2023-03-04T02:57:32.984Z,98687.46
2023-03-04T03:02:34.891Z,98682.52
2023-03-04T03:07:37.122Z,98677.45
2023-03-04T03:12:39.430Z,98678.38
2023-03-04T03:17:42.219Z,98678.45
2023-03-04T03:22:44.356Z,98675.20
2023-03-04T03:27:46.197Z,98673.59
2023-03-04T03:32:48.595Z,98673.20
2023-03-04T03:37:50.641Z,98679.05
2023-03-04T03:42:52.284Z,98682.98
2023-03-04T03:47:53.904Z,98687.39
2023-03-04T03:52:56.132Z,98683.92
2023-03-04T03:57:57.895Z,98678.05
2023-03-04T04:03:00.927Z,98664.80
2023-03-04T04:08:02.786Z,98665.53
2023-03-04T04:13:04.465Z,98665.19
2023-03-04T04:18:06.839Z,98667.67
2023-03-04T04:23:08.601Z,98667.77
2023-03-04T04:28:10.586Z,98668.25
2023-03-04T04:33:12.289Z,98664.72
2023-03-04T04:38:14.005Z,98664.64
2023-03-04T04:43:15.756Z,98665.53
2023-03-04T04:48:17.594Z,98662.86
2023-03-04T04:53:19.245Z,98661.11
2023-03-04T04:58:21.146Z,98664.20
2023-03-04T05:06:13.369Z,98664.70
2023-03-04T05:11:15.771Z,98658.23
2023-03-04T05:16:18.009Z,98659.54
2023-03-04T05:21:20.041Z,98656.19
2023-03-04T05:26:21.732Z,98655.34
2023-03-04T05:31:23.696Z,98653.46
2023-03-04T05:36:25.620Z,98648.98
2023-03-04T05:41:27.400Z,98644.20
2023-03-04T05:46:30.244Z,98636.15
2023-03-04T05:51:33.532Z,98633.75
2023-03-04T05:56:35.261Z,98641.32
2023-03-04T06:01:36.944Z,98631.40
2023-03-04T06:06:38.569Z,98630.88
2023-03-04T06:11:41.013Z,98632.08
2023-03-04T06:16:42.743Z,98632.45
2023-03-04T06:21:44.443Z,98634.65
2023-03-04T06:26:46.106Z,98637.70
2023-03-04T06:31:47.901Z,98636.09
2023-03-04T06:36:50.310Z,98637.90
2023-03-04T06:41:52.045Z,98640.05
2023-03-04T06:46:53.685Z,98645.74
2023-03-04T06:51:55.383Z,98648.27
2023-03-04T06:56:57.053Z,98647.96
2023-03-04T07:01:58.751Z,98657.98
2023-03-04T07:07:00.416Z,98665.52
2023-03-04T07:12:02.199Z,98668.75
2023-03-04T07:17:03.928Z,98668.21
2023-03-04T07:22:06.113Z,98670.85
2023-03-04T07:27:07.800Z,98672.36
2023-03-04T07:32:10.587Z,98673.11
2023-03-04T07:37:12.374Z,98681.44
2023-03-04T07:42:14.063Z,98680.20
2023-03-04T07:47:16.063Z,98684.98
2023-03-04T07:52:17.720Z,98688.42
2023-03-04T07:57:19.418Z,98687.89
2023-03-04T08:02:21.159Z,98698.09
2023-03-04T08:07:23.720Z,98701.69
2023-03-04T08:12:26.023Z,98706.21
2023-03-04T08:17:29.869Z,98699.21
2023-03-04T08:22:31.557Z,98707.48
2023-03-04T08:27:33.443Z,98699.08
2023-03-04T08:32:35.402Z,98691.71
2023-03-04T08:37:37.208Z,98690.45
2023-03-04T08:42:38.809Z,98683.12
2023-03-04T08:47:41.039Z,98684.05
2023-03-04T08:52:42.881Z,98684.29
2023-03-04T08:57:44.551Z,98681.60
2023-03-04T09:02:46.197Z,98678.52
2023-03-04T09:07:47.846Z,98674.42
2023-03-04T09:12:49.528Z,98670.05
2023-03-04T09:17:51.218Z,98669.13
2023-03-04T09:22:52.984Z,98672.06
2023-03-04T09:27:54.676Z,98669.67
2023-03-04T09:32:57.530Z,98668.83
2023-03-04T09:37:59.471Z,98664.40
2023-03-04T09:43:04.133Z,98660.22
2023-03-04T09:48:08.231Z,98657.54
2023-03-04T09:53:23.285Z,98655.27
2023-03-04T09:58:42.255Z,98653.90
2023-03-04T10:03:49.772Z,98652.12
2023-03-04T10:09:02.794Z,98646.02
2023-03-04T10:14:23.096Z,98650.23
2023-03-04T10:19:37.190Z,98644.17
2023-03-04T10:24:38.941Z,98638.77
2023-03-04T10:29:40.580Z,98632.35
2023-03-04T10:34:42.316Z,98625.63
2023-03-04T10:39:46.765Z,98620.90
2023-03-04T10:44:52.950Z,98611.83
2023-03-04T10:49:57.615Z,98603.85
2023-03-04T10:55:04.334Z,98603.25
2023-03-04T11:00:18.148Z,98589.63
2023-03-04T11:05:22.998Z,98579.02
2023-03-04T11:10:40.593Z,98578.95
2023-03-04T11:16:21.964Z,98581.11
2023-03-04T11:21:27.023Z,98574.75
2023-03-04T11:26:40.079Z,98572.50
2023-03-04T11:31:49.206Z,98564.73
2023-03-04T11:37:08.048Z,98559.83
2023-03-04T11:42:20.795Z,98555.98
2023-03-04T11:47:34.083Z,98545.95
2023-03-04T11:52:47.899Z,98540.54
2023-03-04T11:58:07.108Z,98532.84
2023-03-04T12:03:47.606Z,98533.30
2023-03-04T12:09:04.965Z,98525.00
2023-03-04T12:14:21.637Z,98517.88
2023-03-04T12:19:30.121Z,98520.59
2023-03-04T12:24:34.807Z,98514.53
2023-03-04T12:29:51.350Z,98512.36
2023-03-04T12:35:05.082Z,98508.68
2023-03-04T12:40:20.810Z,98501.69
2023-03-04T12:45:28.457Z,98500.17
2023-03-04T12:50:53.416Z,98494.55
2023-03-04T12:55:57.260Z,98487.65
2023-03-04T13:01:34.753Z,98484.97
2023-03-04T13:06:54.722Z,98474.34
2023-03-04T13:12:20.373Z,98474.38
2023-03-04T13:17:43.861Z,98471.68
2023-03-04T13:22:51.677Z,98471.29
2023-03-04T13:28:03.506Z,98470.17
2023-03-04T13:33:08.252Z,98468.09
2023-03-04T13:38:23.426Z,98466.13
2023-03-04T13:43:28.609Z,98464.92
2023-03-04T13:48:36.516Z,98462.48
2023-03-04T13:53:40.846Z,98461.52
2023-03-04T13:59:02.289Z,98460.17
2023-03-04T14:04:38.047Z,98454.14
2023-03-04T14:09:40.036Z,98457.19
2023-03-04T14:14:50.427Z,98459.54
2023-03-04T14:19:53.938Z,98452.83
2023-03-04T14:25:14.235Z,98453.57
2023-03-04T14:30:40.850Z,98456.66
2023-03-04T14:35:49.219Z,98453.75
2023-03-04T14:40:55.900Z,98446.23
2023-03-04T14:46:01.121Z,98456.24
2023-03-04T14:51:03.797Z,98451.29
2023-03-04T14:56:16.112Z,98450.03
2023-03-04T15:01:22.674Z,98447.79
2023-03-04T15:06:26.551Z,98441.07
2023-03-04T15:11:49.702Z,98441.59
2023-03-04T15:16:57.073Z,98435.82
2023-03-04T15:22:07.092Z,98427.35
2023-03-04T15:27:12.403Z,98421.03
2023-03-04T15:32:14.329Z,98415.52
2023-03-04T15:37:42.987Z,98419.56
2023-03-04T15:42:44.742Z,98413.73
2023-03-04T15:47:46.562Z,98416.84
2023-03-04T15:52:50.881Z,98418.30
2023-03-04T15:57:55.882Z,98415.36
2023-03-04T16:02:58.425Z,98410.83
2023-03-04T16:08:00.129Z,98410.70
2023-03-04T16:13:02.592Z,98409.10
2023-03-04T16:18:04.303Z,98408.67
2023-03-04T16:23:10.738Z,98410.00
2023-03-04T16:28:13.282Z,98411.05
2023-03-04T16:33:16.480Z,98413.09
2023-03-04T16:38:27.102Z,98417.15
2023-03-04T16:43:29.080Z,98417.88
2023-03-04T16:48:30.824Z,98422.33
2023-03-04T16:53:36.137Z,98423.23
2023-03-04T16:58:37.895Z,98426.06
2023-03-04T17:03:39.580Z,98424.64
2023-03-04T17:08:41.707Z,98423.61
2023-03-04T17:13:44.041Z,98421.91
2023-03-04T17:18:46.248Z,98421.70
2023-03-04T17:23:48.509Z,98422.08
2023-03-04T17:28:51.672Z,98428.23
2023-03-04T17:33:53.442Z,98427.38
2023-03-04T17:38:55.069Z,98431.75
2023-03-04T17:43:57.130Z,98431.19
2023-03-04T17:48:59.670Z,98433.44
2023-03-04T17:54:02.187Z,98430.55
2023-03-04T17:59:06.590Z,98432.05
2023-03-04T18:04:08.410Z,98427.88
2023-03-04T18:09:10.230Z,98426.24
2023-03-04T18:14:12.851Z,98422.75
2023-03-04T18:19:16.337Z,98423.50
2023-03-04T18:24:20.048Z,98430.39
2023-03-04T18:29:21.763Z,98434.14
2023-03-04T18:34:23.396Z,98431.27
2023-03-04T18:39:25.146Z,98437.75
2023-03-04T18:44:26.820Z,98441.17
2023-03-04T18:49:31.109Z,98441.09
2023-03-04T18:54:32.888Z,98442.23
2023-03-04T18:59:47.139Z,98439.52
2023-03-04T19:04:50.179Z,98440.98
2023-03-04T19:09:51.866Z,98442.56
2023-03-04T19:14:53.555Z,98448.63
2023-03-04T19:19:55.163Z,98447.49
2023-03-04T19:24:57.066Z,98451.99
2023-03-04T19:29:58.968Z,98450.23
2023-03-04T19:35:01.272Z,98448.95
2023-03-04T19:40:03.940Z,98459.34
2023-03-04T19:45:09.705Z,98461.39
2023-03-04T19:50:13.349Z,98456.02
2023-03-04T19:55:15.104Z,98456.34
2023-03-04T20:00:17.337Z,98458.38
2023-03-04T20:05:19.077Z,98463.61
2023-03-04T20:10:20.883Z,98459.85
2023-03-04T20:15:23.165Z,98457.16
2023-03-04T20:20:28.666Z,98457.40
2023-03-04T20:25:32.135Z,98460.35
2023-03-04T20:30:33.773Z,98455.94
2023-03-04T20:35:35.429Z,98458.16
2023-03-04T20:40:38.087Z,98455.37
2023-03-04T20:45:39.810Z,98452.96
2023-03-04T20:50:41.542Z,98449.79
2023-03-04T20:55:43.169Z,98448.75
2023-03-04T21:00:44.813Z,98447.89
2023-03-04T21:05:46.529Z,98443.38
2023-03-04T21:10:51.237Z,98444.94
2023-03-04T21:15:53.271Z,98444.13
2023-03-04T21:20:55.388Z,98441.23
2023-03-04T21:25:56.958Z,98438.95
2023-03-04T21:30:58.903Z,98435.47
2023-03-04T21:36:00.879Z,98434.21
2023-03-04T21:41:02.865Z,98429.74
2023-03-04T21:46:05.569Z,98428.60
2023-03-04T21:51:08.463Z,98438.14
2023-03-04T21:56:12.059Z,98446.71
2023-03-04T22:01:16.953Z,98455.38
2023-03-04T22:06:22.122Z,98453.43
2023-03-04T22:11:24.530Z,98450.82
2023-03-04T22:16:30.019Z,98447.88
2023-03-04T22:21:31.834Z,98446.95
2023-03-04T22:26:35.063Z,98448.95
2023-03-04T22:31:38.475Z,98447.22
2023-03-04T22:36:43.285Z,98448.91
2023-03-04T22:41:45.857Z,98450.54
2023-03-04T22:46:48.324Z,98454.17
2023-03-04T22:51:53.057Z,98453.85
2023-03-04T22:56:54.818Z,98461.23
2023-03-04T23:01:57.255Z,98461.42
2023-03-04T23:06:59.154Z,98464.02
2023-03-04T23:12:01.323Z,98462.77
2023-03-04T23:17:03.420Z,98465.95
2023-03-04T23:22:05.453Z,98470.09
2023-03-04T23:27:12.266Z,98474.12
2023-03-04T23:32:14.072Z,98472.77
2023-03-04T23:37:15.727Z,98470.98
2023-03-04T23:42:17.384Z,98478.08
2023-03-04T23:47:19.118Z,98479.70
2023-03-04T23:52:20.849Z,98475.14
2023-03-04T23:57:22.529Z,98473.68
